Time;durP1;ratioP1;P1;durP2;ratioP2;P2;SDS_P1;SDS_P2;PMS_P1;PMS_P2;Temp;Humidity;BMP_temperature;BMP_pressure;BME280_temperature;BME280_humidity;BME280_pressure;Samples;Min_cycle;Max_cycle;Signal;HPM_P1;HPM_P2
2020/12/07 00:01:36;;;;;;;10.80;7.53;;;;;;;-1.99;87.27;93084.39;1733383;80;21197;-80
2020/12/07 00:04:04;;;;;;;9.23;6.30;;;;;;;-2.03;87.25;93084.81;1759739;80;21656;-77
2020/12/07 00:06:32;;;;;;;11.03;7.03;;;;;;;-2.10;87.27;93075.77;1769993;79;21271;-77
2020/12/07 00:09:01;;;;;;;12.13;7.43;;;;;;;-2.13;87.32;93077.19;1812356;78;21782;-76
2020/12/07 00:11:31;;;;;;;11.43;6.87;;;;;;;-2.13;87.44;93080.41;1787120;78;21643;-78
2020/12/07 00:14:01;;;;;;;15.93;6.75;;;;;;;-2.14;87.36;93076.97;1780448;80;22301;-76
2020/12/07 00:16:29;;;;;;;10.40;6.30;;;;;;;-2.13;87.37;93083.08;1794155;78;21176;-78
2020/12/07 00:18:58;;;;;;;9.67;6.97;;;;;;;-2.15;87.44;93085.27;1808127;78;21172;-76
2020/12/07 00:21:26;;;;;;;10.53;6.83;;;;;;;-2.15;87.42;93086.05;1808552;78;21051;-77
2020/12/07 00:23:55;;;;;;;10.33;6.87;;;;;;;-2.15;87.45;93093.27;1783517;80;21143;-77
2020/12/07 00:26:23;;;;;;;11.20;8.07;;;;;;;-2.15;87.55;93092.70;1800530;79;21646;-77
2020/12/07 00:28:51;;;;;;;15.50;9.17;;;;;;;-2.11;87.63;93088.29;1814460;78;21152;-77
2020/12/07 00:31:19;;;;;;;15.63;10.00;;;;;;;-2.05;87.62;93092.34;1779712;80;21172;-77
2020/12/07 00:33:47;;;;;;;17.03;10.27;;;;;;;-2.01;87.61;93089.25;1766359;79;21313;-75
2020/12/07 00:36:16;;;;;;;18.43;11.77;;;;;;;-2.01;87.40;93089.25;1807596;79;21604;-77
2020/12/07 00:38:44;;;;;;;18.13;11.43;;;;;;;-2.00;87.46;93085.47;1767069;79;21191;-78
2020/12/07 00:41:12;;;;;;;16.50;10.47;;;;;;;-1.97;87.41;93078.72;1792697;79;21628;-76
2020/12/07 00:43:40;;;;;;;14.97;9.63;;;;;;;-1.99;87.22;93073.73;1782522;79;21171;-76
2020/12/07 00:46:08;;;;;;;17.43;11.23;;;;;;;-2.05;87.11;93069.69;1786130;78;21599;-78
2020/12/07 00:48:36;;;;;;;18.27;12.63;;;;;;;-2.06;87.29;93082.02;1776223;79;21116;-77
2020/12/07 00:51:05;;;;;;;18.67;11.67;;;;;;;-2.07;87.44;93073.25;1808910;79;22474;-79
2020/12/07 00:53:33;;;;;;;18.60;11.40;;;;;;;-2.03;87.50;93078.67;1827730;78;21152;-76
2020/12/07 00:56:01;;;;;;;11.27;8.47;;;;;;;-2.03;87.49;93078.67;1818772;77;21124;-77
2020/12/07 00:58:30;;;;;;;27.90;16.90;;;;;;;-2.06;87.39;93076.69;1815213;78;21137;-76
2020/12/07 01:00:59;;;;;;;31.30;17.57;;;;;;;-2.10;87.41;93080.55;1784814;79;21167;-79
2020/12/07 01:03:28;;;;;;;28.23;15.67;;;;;;;-2.08;87.81;93078.32;1811628;79;21628;-75
2020/12/07 01:05:56;;;;;;;16.60;9.87;;;;;;;-2.05;87.94;93079.56;1823718;78;21210;-77
2020/12/07 01:08:25;;;;;;;12.20;7.23;;;;;;;-2.03;87.66;93084.01;1757495;80;21180;-76
2020/12/07 01:10:56;;;;;;;13.53;8.67;;;;;;;-2.09;87.17;93078.66;1769016;81;21137;-76
2020/12/07 01:13:26;;;;;;;13.93;8.63;;;;;;;-2.18;87.14;93077.92;1795097;77;21174;-78
2020/12/07 01:15:54;;;;;;;13.07;8.07;;;;;;;-2.23;87.48;93070.91;1835513;77;21644;-79
2020/12/07 01:18:24;;;;;;;9.30;6.80;;;;;;;-2.20;87.60;93076.92;1727683;82;21163;-78
2020/12/07 01:20:53;;;;;;;9.70;7.20;;;;;;;-2.18;87.58;93066.73;1824643;77;21161;-77
2020/12/07 01:23:21;;;;;;;7.57;5.80;;;;;;;-2.18;87.45;93069.40;1822618;78;21155;-77
2020/12/07 01:25:49;;;;;;;7.70;5.70;;;;;;;-2.15;87.50;93058.63;1791497;78;21132;-78
2020/12/07 01:28:17;;;;;;;8.90;6.10;;;;;;;-2.13;87.31;93058.55;1758452;81;21645;-75
2020/12/07 01:30:47;;;;;;;7.27;5.57;;;;;;;-2.15;87.07;93061.30;1783030;80;21522;-77
2020/12/07 01:33:16;;;;;;;6.40;5.40;;;;;;;-2.24;87.16;93047.48;1784316;80;21695;-79
2020/12/07 01:35:45;;;;;;;5.90;5.27;;;;;;;-2.22;87.28;93056.47;1813716;77;21194;-75
2020/12/07 01:38:13;;;;;;;7.67;5.70;;;;;;;-2.20;87.25;93051.62;1841919;77;21103;-77
2020/12/07 01:40:42;;;;;;;8.50;6.17;;;;;;;-2.23;87.07;93057.59;1797136;79;21659;-76
2020/12/07 01:43:10;;;;;;;6.93;4.63;;;;;;;-2.26;87.06;93055.56;1782668;79;21275;-78
2020/12/07 01:45:39;;;;;;;7.00;5.60;;;;;;;-2.34;86.78;93057.18;1770469;80;21593;-77
2020/12/07 01:48:12;;;;;;;8.37;6.00;;;;;;;-2.44;86.68;93062.90;1793567;79;21755;-75
2020/12/07 01:50:41;;;;;;;8.67;6.40;;;;;;;-2.52;86.94;93051.72;1815431;78;21127;-75
2020/12/07 01:53:10;;;;;;;9.87;6.00;;;;;;;-2.54;87.27;93052.05;1866178;76;22526;-77
2020/12/07 01:55:39;;;;;;;8.77;6.43;;;;;;;-2.54;87.52;93050.72;1867413;76;21175;-75
2020/12/07 01:58:07;;;;;;;8.60;6.67;;;;;;;-2.48;87.82;93050.00;1819592;78;21175;-76
2020/12/07 02:00:36;;;;;;;9.47;6.43;;;;;;;-2.38;87.87;93054.94;1830386;78;21130;-77
2020/12/07 02:03:06;;;;;;;9.13;4.93;;;;;;;-2.27;87.60;93050.79;1815186;78;21133;-75
2020/12/07 02:05:38;;;;;;;8.63;6.73;;;;;;;-2.23;87.09;93050.37;1833820;77;21504;-76
2020/12/07 02:08:19;;;;;;;7.53;5.83;;;;;;;-2.28;86.72;93051.91;1806153;77;21113;-77
2020/12/07 02:10:53;;;;;;;;;;;;;;;-2.36;86.89;93051.97;1774291;78;21174;-76
2020/12/07 02:13:23;;;;;;;8.93;6.57;;;;;;;-2.41;87.17;93046.81;1851577;77;20227;-78
2020/12/07 02:15:51;;;;;;;11.40;7.07;;;;;;;-2.40;87.34;93047.06;1830632;78;21172;-78
2020/12/07 02:18:21;;;;;;;11.63;7.97;;;;;;;-2.38;87.38;93044.84;1816505;77;21140;-79
2020/12/07 02:20:49;;;;;;;9.10;6.70;;;;;;;-2.39;87.42;93050.72;1811103;77;21172;-76
2020/12/07 02:23:19;;;;;;;10.50;6.67;;;;;;;-2.36;87.53;93055.41;1801346;79;21207;-75
2020/12/07 02:25:52;;;;;;;16.13;9.27;;;;;;;-2.34;87.35;93057.73;1830603;77;21101;-77
2020/12/07 02:28:22;;;;;;;9.33;6.33;;;;;;;-2.33;87.03;93053.95;1812241;79;21290;-78
2020/12/07 02:30:50;;;;;;;10.10;6.47;;;;;;;-2.41;86.82;93052.91;1802554;79;21250;-77
2020/12/07 02:33:19;;;;;;;12.00;8.17;;;;;;;-2.49;86.94;93053.19;1758658;77;21085;-78
2020/12/07 02:35:48;;;;;;;12.33;7.67;;;;;;;-2.58;87.09;93049.03;1821844;77;22472;-76
2020/12/07 02:38:17;;;;;;;8.80;6.37;;;;;;;-2.65;87.41;93041.55;1836164;77;21057;-77
2020/12/07 02:40:47;;;;;;;8.17;6.47;;;;;;;-2.63;87.62;93040.69;1846268;76;21598;-79
2020/12/07 02:43:15;;;;;;;7.77;5.97;;;;;;;-2.63;87.38;93041.21;1812739;78;21627;-77
2020/12/07 02:45:44;;;;;;;8.57;6.27;;;;;;;-2.67;87.23;93046.42;1811785;79;21194;-76
2020/12/07 02:48:15;;;;;;;8.83;6.07;;;;;;;-2.64;87.35;93042.33;1804740;78;21523;-78
2020/12/07 02:50:45;;;;;;;6.00;4.93;;;;;;;-2.62;87.29;93038.25;1800033;78;21129;-77
2020/12/07 02:53:15;;;;;;;6.90;4.80;;;;;;;-2.59;87.12;93044.81;1809959;79;21178;-77
2020/12/07 02:55:43;;;;;;;7.00;5.20;;;;;;;-2.61;87.01;93043.79;1813648;78;21637;-79
2020/12/07 02:58:12;;;;;;;7.40;5.43;;;;;;;-2.64;86.89;93041.77;1758935;77;21181;-75
2020/12/07 03:00:41;;;;;;;8.77;5.27;;;;;;;-2.71;86.87;93043.63;1784401;79;21194;-77
2020/12/07 03:03:11;;;;;;;6.80;5.47;;;;;;;-2.81;87.10;93039.98;1805454;79;21180;-78
2020/12/07 03:05:40;;;;;;;8.43;5.67;;;;;;;-2.81;87.35;93040.54;1816132;79;21139;-75
2020/12/07 03:08:16;;;;;;;8.43;6.27;;;;;;;-2.79;87.36;93039.09;1803003;77;21624;-76
2020/12/07 03:10:45;;;;;;;8.90;6.17;;;;;;;-2.76;87.27;93042.45;1809049;78;21199;-75
2020/12/07 03:13:14;;;;;;;10.27;6.80;;;;;;;-2.78;87.28;93041.23;1748616;81;21509;-78
2020/12/07 03:15:44;;;;;;;9.23;5.77;;;;;;;-2.81;87.40;93035.22;1744288;82;21211;-78
2020/12/07 03:18:13;;;;;;;10.20;7.23;;;;;;;-2.82;87.32;93028.31;1791167;79;21134;-77
2020/12/07 03:20:43;;;;;;;8.77;5.90;;;;;;;-2.87;87.17;93032.50;1786955;79;21740;-75
2020/12/07 03:23:11;;;;;;;8.97;6.63;;;;;;;-2.93;87.39;93033.23;1774795;79;21176;-76
2020/12/07 03:25:41;;;;;;;7.97;5.50;;;;;;;-2.88;87.63;93040.26;1767095;77;21272;-76
2020/12/07 03:28:09;;;;;;;7.77;6.10;;;;;;;-2.87;87.58;93038.59;1828251;78;21684;-76
2020/12/07 03:30:38;;;;;;;6.53;5.10;;;;;;;-2.87;87.63;93033.27;1870350;76;21702;-78
2020/12/07 03:33:06;;;;;;;10.40;6.50;;;;;;;-2.82;87.72;93029.12;1822890;76;21629;-78
2020/12/07 03:35:36;;;;;;;9.23;6.03;;;;;;;-2.75;87.64;93028.04;1804310;78;21098;-79
2020/12/07 03:38:06;;;;;;;7.07;5.60;;;;;;;-2.68;87.17;93032.86;1780319;78;21164;-77
2020/12/07 03:40:35;;;;;;;7.97;6.33;;;;;;;-2.67;86.94;93035.78;1806479;79;21210;-75
2020/12/07 03:43:04;;;;;;;7.90;5.40;;;;;;;-2.66;86.75;93032.01;1793603;79;21193;-75
2020/12/07 03:45:36;;;;;;;6.50;5.03;;;;;;;-2.72;86.79;93021.30;1775496;79;21243;-75
2020/12/07 03:48:05;;;;;;;7.40;5.50;;;;;;;-2.76;87.00;93024.38;1779682;79;21125;-77
2020/12/07 03:50:33;;;;;;;7.40;5.50;;;;;;;-2.82;87.25;93029.64;1807521;78;21552;-75
2020/12/07 03:53:01;;;;;;;8.73;5.70;;;;;;;-2.85;87.52;93023.10;1828464;77;21137;-77
2020/12/07 03:55:30;;;;;;;7.23;4.97;;;;;;;-2.81;87.57;93017.92;1768336;79;21202;-77
2020/12/07 03:58:01;;;;;;;8.90;6.13;;;;;;;-2.83;87.38;93022.22;1784570;80;22604;-76
2020/12/07 04:00:30;;;;;;;6.73;5.57;;;;;;;-2.87;87.49;93015.98;1799523;79;21639;-78
2020/12/07 04:03:03;;;;;;;8.63;6.30;;;;;;;-2.92;87.83;93014.84;1800741;79;21171;-76
2020/12/07 04:05:37;;;;;;;7.80;5.67;;;;;;;-2.87;87.97;93019.19;1802274;79;21184;-79
2020/12/07 04:08:02;;;;;;;8.03;5.30;;;;;;;-2.88;87.78;93024.30;1807309;78;21171;-77
2020/12/07 04:10:30;;;;;;;6.50;5.47;;;;;;;-2.92;87.64;93024.70;1784838;80;21671;-75
2020/12/07 04:13:00;;;;;;;6.87;5.33;;;;;;;-2.94;87.77;93022.34;1763148;81;21454;-77
2020/12/07 04:15:28;;;;;;;6.77;5.17;;;;;;;-2.94;87.76;93022.34;1749777;81;21511;-79
2020/12/07 04:17:57;;;;;;;6.37;5.30;;;;;;;-2.95;87.69;93027.45;1771836;78;21070;-76
2020/12/07 04:20:25;;;;;;;8.13;5.73;;;;;;;-2.98;87.78;93018.77;1795654;79;21108;-78
2020/12/07 04:22:53;;;;;;;8.00;5.10;;;;;;;-2.91;87.94;93024.92;1806638;79;21193;-75
2020/12/07 04:25:23;;;;;;;6.83;5.00;;;;;;;-2.84;88.02;93023.33;1778827;80;21584;-76
2020/12/07 04:27:51;;;;;;;7.33;5.23;;;;;;;-2.75;87.79;93019.28;1708611;80;21609;-78
2020/12/07 04:30:19;;;;;;;7.73;5.53;;;;;;;-2.67;87.36;93021.66;1710121;81;21168;-76
2020/12/07 04:32:48;;;;;;;7.97;5.40;;;;;;;-2.62;87.23;93015.62;1800014;78;21149;-79
2020/12/07 04:35:16;;;;;;;7.80;5.20;;;;;;;-2.56;87.00;93014.31;1828905;78;22531;-75
2020/12/07 04:37:44;;;;;;;9.23;6.43;;;;;;;-2.52;86.83;93011.78;1808254;79;21577;-78
2020/12/07 04:40:13;;;;;;;7.77;5.23;;;;;;;-2.53;86.63;93008.91;1793723;80;21074;-77
2020/12/07 04:42:41;;;;;;;7.57;5.40;;;;;;;-2.54;86.85;93007.35;1766160;80;21585;-75
2020/12/07 04:45:10;;;;;;;7.57;5.27;;;;;;;-2.52;86.65;93007.27;1786156;79;21181;-78
2020/12/07 04:47:38;;;;;;;7.63;5.47;;;;;;;-2.51;86.46;93012.03;1775560;80;21986;-79
2020/12/07 04:50:07;;;;;;;24.13;11.93;;;;;;;-2.50;86.30;92998.39;1747299;81;21872;-74
2020/12/07 04:52:35;;;;;;;8.23;5.67;;;;;;;-2.46;86.20;93000.62;1768502;80;21222;-75
2020/12/07 04:55:04;;;;;;;13.40;7.27;;;;;;;-2.42;85.97;92994.11;1772567;79;21167;-80
2020/12/07 04:57:32;;;;;;;8.13;5.50;;;;;;;-2.39;85.90;93001.45;1754402;80;21175;-76
2020/12/07 05:00:01;;;;;;;12.50;8.23;;;;;;;-2.39;85.47;93006.78;1777967;77;21181;-77
2020/12/07 05:02:29;;;;;;;10.60;6.83;;;;;;;-2.43;85.29;92997.11;1805414;79;21083;-78
2020/12/07 05:04:57;;;;;;;7.73;5.63;;;;;;;-2.50;84.99;92999.72;1803926;78;21541;-75
2020/12/07 05:07:25;;;;;;;13.43;7.37;;;;;;;-2.57;85.03;92996.02;1768172;81;22272;-79
2020/12/07 05:09:56;;;;;;;15.40;9.13;;;;;;;-2.64;85.20;92997.84;1730232;80;21174;-77
2020/12/07 05:12:34;;;;;;;14.83;9.00;;;;;;;-2.68;85.54;92999.59;1801474;79;21252;-76
2020/12/07 05:14:59;;;;;;;12.87;8.50;;;;;;;-2.70;86.00;92992.50;1767609;80;21206;-79
2020/12/07 05:17:29;;;;;;;12.17;7.47;;;;;;;-2.66;86.27;92988.64;1790871;77;21598;-78
2020/12/07 05:19:58;;;;;;;14.27;8.73;;;;;;;-2.61;86.33;92988.45;1806560;78;21176;-75
2020/12/07 05:22:28;;;;;;;13.37;9.10;;;;;;;-2.58;86.44;92990.47;1806831;79;21092;-75
2020/12/07 05:24:56;;;;;;;10.60;7.77;;;;;;;-2.57;86.54;92989.36;1805728;77;21143;-77
2020/12/07 05:27:27;;;;;;;10.70;7.77;;;;;;;-2.56;86.73;92982.37;1796077;79;21194;-79
2020/12/07 05:32:33;;;;;;;10.07;7.37;;;;;;;-2.46;86.67;92974.00;1763506;77;21107;-78
2020/12/07 05:35:01;;;;;;;8.23;6.70;;;;;;;-2.45;86.33;92978.77;1782792;78;21143;-77
2020/12/07 05:37:34;;;;;;;11.90;8.00;;;;;;;-2.48;85.74;92981.55;1816783;78;21642;-77
2020/12/07 05:40:05;;;;;;;11.07;8.27;;;;;;;-2.49;85.61;92979.97;1838150;78;21108;-77
2020/12/07 05:42:35;;;;;;;15.37;9.03;;;;;;;-2.50;85.79;92978.42;1761621;79;21651;-79
2020/12/07 05:45:05;;;;;;;19.80;10.90;;;;;;;-2.48;85.85;92978.89;1778510;79;21113;-79
2020/12/07 05:47:34;;;;;;;16.57;10.23;;;;;;;-2.48;85.77;92982.11;1788982;78;21575;-80
2020/12/07 05:50:02;;;;;;;15.03;10.67;;;;;;;-2.50;85.81;92973.66;1832466;78;21610;-75
2020/12/07 05:52:51;;;;;;;16.37;10.93;;;;;;;-2.55;85.52;92981.84;1794810;79;21174;-75
2020/12/07 05:55:21;;;;;;;13.60;9.43;;;;;;;-2.55;85.47;92976.52;1770290;79;21138;-80
2020/12/07 05:58:05;;;;;;;12.97;8.70;;;;;;;-2.54;85.50;92976.73;1766746;78;21100;-77
2020/12/07 06:00:35;;;;;;;14.33;9.20;;;;;;;-2.56;85.43;92981.03;1811438;79;21158;-80
2020/12/07 06:03:05;;;;;;;12.43;7.93;;;;;;;-2.58;85.53;92976.60;1796877;79;21196;-78
2020/12/07 06:05:33;;;;;;;12.07;8.13;;;;;;;-2.62;85.61;92979.69;1831604;77;21832;-79
2020/12/07 06:08:12;;;;;;;12.60;8.13;;;;;;;-2.62;85.85;92978.91;1798746;79;21168;-76
2020/12/07 06:10:55;;;;;;;12.70;8.60;;;;;;;-2.59;85.96;92979.59;1746233;82;21490;-79
2020/12/07 06:13:25;;;;;;;13.47;8.63;;;;;;;-2.56;85.97;92973.61;1756023;81;21134;-74
2020/12/07 06:15:54;;;;;;;45.23;27.47;;;;;;;-2.57;85.81;92981.37;1781975;79;22061;-76
2020/12/07 06:18:30;;;;;;;45.03;26.40;;;;;;;-2.53;85.82;92975.06;1780214;79;21119;-77
2020/12/07 06:21:08;;;;;;;26.37;17.30;;;;;;;-2.52;85.73;92977.17;1757175;81;21053;-75
2020/12/07 06:23:38;;;;;;;130.33;76.83;;;;;;;-2.47;85.77;92981.00;1773811;80;21896;-75
2020/12/07 06:26:08;;;;;;;16.80;11.37;;;;;;;-2.40;85.46;92984.48;1738571;82;21503;-79
2020/12/07 06:28:41;;;;;;;22.13;14.60;;;;;;;-2.34;85.23;92979.95;1763940;81;21207;-79
2020/12/07 06:31:18;;;;;;;16.43;10.17;;;;;;;-2.30;85.03;92980.86;1757394;81;21097;-76
2020/12/07 06:33:56;;;;;;;16.17;10.67;;;;;;;-2.29;84.97;92979.00;1751863;81;21139;-79
2020/12/07 06:36:34;;;;;;;17.57;11.77;;;;;;;-2.28;84.81;92974.66;1716119;82;21191;-77
2020/12/07 06:39:10;;;;;;;19.90;12.27;;;;;;;-2.22;84.56;92976.56;1757621;79;21586;-80
2020/12/07 06:41:46;;;;;;;18.60;11.80;;;;;;;-2.22;84.54;92979.23;1799218;79;21443;-79
2020/12/07 06:44:22;;;;;;;16.33;9.27;;;;;;;-2.23;84.44;92979.01;1804331;79;21051;-78
2020/12/07 06:47:04;;;;;;;11.87;8.10;;;;;;;-2.25;84.32;92980.67;1835718;78;21070;-76
2020/12/07 06:49:48;;;;;;;15.53;9.40;;;;;;;-2.24;84.07;92982.23;1820268;77;21168;-77
2020/12/07 06:55:55;;;;;;;;;;;;;;;;;;;;;
2020/12/07 06:58:53;;;;;;;12.70;8.03;;;;;;;-1.10;84.00;92974.67;1800327;78;21219;-79
2020/12/07 07:01:30;;;;;;;12.37;8.03;;;;;;;-0.45;82.69;92973.45;1794702;79;21155;-78
2020/12/07 07:03:59;;;;;;;11.12;7.87;;;;;;;0.13;81.34;92971.27;1798555;79;21185;-79
2020/12/07 07:06:28;;;;;;;10.80;7.25;;;;;;;0.71;79.82;92970.34;1766481;81;21208;-77
2020/12/07 07:08:59;;;;;;;13.35;9.33;;;;;;;1.12;77.74;92969.59;1761399;79;21859;-77
2020/12/07 07:11:27;;;;;;;10.88;7.78;;;;;;;1.28;75.72;92970.14;1757027;79;21172;-77
2020/12/07 07:13:56;;;;;;;9.73;7.47;;;;;;;1.53;74.68;92967.48;1827213;78;21173;-78
2020/12/07 07:16:25;;;;;;;10.58;7.90;;;;;;;1.81;74.43;92966.00;1754583;79;21183;-80
2020/12/07 07:18:53;;;;;;;9.23;6.87;;;;;;;2.12;72.13;92961.64;1811438;78;21583;-78
2020/12/07 07:21:22;;;;;;;6.78;5.92;;;;;;;2.40;70.86;92958.73;1768131;80;21631;-81
2020/12/07 07:23:51;;;;;;;7.47;5.75;;;;;;;2.55;69.37;92961.89;1745897;81;21154;-79
2020/12/07 07:30:23;;;;;;;10.55;7.20;;;;;;;2.80;69.39;92954.86;1851523;77;21198;-79
2020/12/07 07:32:54;;;;;;;17.85;11.45;;;;;;;3.20;67.88;92958.42;1809498;77;21218;-78
2020/12/07 07:35:37;;;;;;;20.30;14.05;;;;;;;3.50;67.17;92959.05;1615497;87;39817;-78
2020/12/07 07:41:32;;;;;;;16.50;11.08;;;;;;;3.70;65.18;92959.17;1771466;80;21183;-79
2020/12/07 07:44:01;;;;;;;11.63;8.30;;;;;;;3.73;64.90;92960.38;1802544;78;21563;-78
2020/12/07 07:46:32;;;;;;;13.25;8.35;;;;;;;3.93;64.12;92956.98;1800870;77;21135;-78
2020/12/07 09:20:54;;;;;;;6.67;4.78;;;;;;;4.51;55.06;92930.38;1759945;80;21190;-81
2020/12/07 09:23:28;;;;;;;6.28;4.53;;;;;;;4.25;55.70;92926.44;1732007;81;21804;-82
2020/12/07 09:26:15;;;;;;;6.05;4.80;;;;;;;4.00;56.09;92921.54;1737638;81;21652;-81
2020/12/07 09:29:36;;;;;;;6.65;5.42;;;;;;;3.78;56.94;92929.13;1820243;77;21128;-78
2020/12/07 09:37:49;;;;;;;6.92;4.60;;;;;;;3.39;57.81;92915.91;1800302;76;21176;-79
2020/12/07 09:40:25;;;;;;;7.33;4.62;;;;;;;3.16;58.81;92907.32;1817322;78;21341;-79
2020/12/07 09:42:53;;;;;;;7.78;5.60;;;;;;;3.07;58.97;92908.12;1818444;78;21280;-79
2020/12/07 09:45:23;;;;;;;5.92;4.45;;;;;;;3.07;58.97;92908.12;1820161;78;21090;-75
2020/12/07 09:47:51;;;;;;;6.20;4.25;;;;;;;3.13;59.63;92903.23;1845869;77;21665;-76
2020/12/07 09:50:19;;;;;;;8.05;4.42;;;;;;;3.13;59.63;92903.23;1785489;78;21155;-76
2020/12/07 09:52:48;;;;;;;7.70;5.37;;;;;;;3.23;59.22;92903.17;1826019;78;22060;-78
2020/12/07 09:55:17;;;;;;;7.00;5.17;;;;;;;3.20;58.37;92897.97;1799742;79;21171;-77
2020/12/07 09:57:45;;;;;;;8.10;5.45;;;;;;;3.38;59.08;92890.92;1820839;78;21581;-79
2020/12/07 10:00:40;;;;;;;7.10;5.05;;;;;;;3.67;58.50;92889.21;1834107;77;21597;-80
2020/12/07 10:03:09;;;;;;;6.72;5.03;;;;;;;3.67;58.50;92889.21;1807512;79;21130;-77
2020/12/07 10:05:37;;;;;;;7.90;5.12;;;;;;;4.04;56.93;92888.72;1784664;79;22078;-77
2020/12/07 10:08:05;;;;;;;10.70;6.20;;;;;;;4.04;56.93;92888.72;1809784;78;21152;-77
2020/12/07 10:10:33;;;;;;;11.35;6.70;;;;;;;3.95;56.43;92879.38;1806344;78;21592;-77
2020/12/07 10:13:04;;;;;;;8.58;5.83;;;;;;;3.78;56.96;92874.77;1795617;79;21330;-78
2020/12/07 10:15:32;;;;;;;9.55;5.17;;;;;;;3.48;57.49;92860.55;1803828;79;21688;-78
2020/12/07 10:18:01;;;;;;;7.90;5.50;;;;;;;3.48;57.49;92860.55;1809511;79;21298;-78
2020/12/07 10:20:29;;;;;;;10.23;6.65;;;;;;;3.31;58.37;92863.97;1800557;79;21175;-76
2020/12/07 10:22:58;;;;;;;7.40;5.65;;;;;;;3.23;59.28;92862.30;1790653;78;21179;-78
2020/12/07 10:25:26;;;;;;;8.28;5.45;;;;;;;3.18;59.81;92860.50;1836506;77;21169;-78
2020/12/07 10:27:55;;;;;;;11.33;6.45;;;;;;;3.17;60.02;92859.73;1846297;76;21131;-78
2020/12/07 10:30:23;;;;;;;8.70;5.72;;;;;;;3.12;59.81;92867.53;1833692;78;21697;-78
2020/12/07 10:32:52;;;;;;;7.75;5.30;;;;;;;3.08;60.26;92873.97;1826833;78;21185;-79
2020/12/07 10:35:20;;;;;;;10.70;7.45;;;;;;;2.99;60.43;92864.83;1811123;78;21584;-78
2020/12/07 10:37:50;;;;;;;7.75;6.03;;;;;;;2.94;60.63;92865.72;1779590;79;22034;-81
2020/12/07 10:40:18;;;;;;;8.25;6.28;;;;;;;2.87;60.55;92870.41;1808055;77;21345;-78
2020/12/07 10:42:46;;;;;;;8.00;5.37;;;;;;;2.84;61.08;92863.06;1768500;81;21447;-77
2020/12/07 10:45:14;;;;;;;8.33;5.40;;;;;;;2.85;60.99;92855.20;1838339;78;21598;-81
2020/12/07 10:47:44;;;;;;;7.12;5.12;;;;;;;2.85;61.04;92852.52;1765899;78;21173;-79
2020/12/07 10:50:12;;;;;;;7.62;5.90;;;;;;;2.79;61.35;92845.92;1799197;77;21624;-77
2020/12/07 10:52:40;;;;;;;7.60;6.05;;;;;;;2.82;61.69;92845.17;1777091;80;21135;-80
2020/12/07 10:55:08;;;;;;;8.80;6.22;;;;;;;2.85;61.07;92845.23;1818273;78;21370;-77
2020/12/07 10:57:37;;;;;;;10.48;6.65;;;;;;;2.86;60.92;92833.95;1778686;80;21596;-78
2020/12/07 11:00:06;;;;;;;7.67;6.08;;;;;;;2.85;61.07;92839.86;1727197;81;21147;-79
2020/12/07 11:02:34;;;;;;;9.20;6.30;;;;;;;2.84;61.58;92838.89;1763046;78;21186;-78
2020/12/07 11:05:03;;;;;;;12.13;7.37;;;;;;;2.84;61.58;92834.29;1791169;78;21184;-78
2020/12/07 11:07:32;;;;;;;15.48;9.00;;;;;;;2.84;61.79;92838.89;1821029;77;21603;-76
2020/12/07 11:10:00;;;;;;;12.93;8.30;;;;;;;2.85;61.58;92841.78;1777237;77;21163;-80
2020/12/07 11:12:29;;;;;;;11.43;6.83;;;;;;;2.84;61.75;92832.95;1783175;80;21508;-77
2020/12/07 11:14:57;;;;;;;11.88;7.60;;;;;;;2.82;61.86;92835.78;1794920;78;21155;-78
2020/12/07 11:17:25;;;;;;;11.73;7.17;;;;;;;2.82;61.82;92834.44;1755646;81;21124;-79
2020/12/07 11:19:53;;;;;;;12.73;7.62;;;;;;;2.79;62.02;92839.20;1741614;80;21656;-82
2020/12/07 11:22:21;;;;;;;12.78;9.08;;;;;;;2.76;62.10;92841.27;1735510;80;21191;-79
2020/12/07 11:24:50;;;;;;;10.93;7.90;;;;;;;2.70;62.03;92840.00;1755592;81;21199;-79
2020/12/07 11:27:20;;;;;;;12.82;8.10;;;;;;;2.64;61.97;92843.57;1855587;77;21166;-82
2020/12/07 11:29:50;;;;;;;16.60;8.60;;;;;;;2.54;62.23;92836.87;1821972;77;21152;-81
2020/12/07 11:32:18;;;;;;;13.75;7.78;;;;;;;2.48;62.68;92837.53;1800932;78;21207;-81
2020/12/07 11:34:47;;;;;;;11.80;6.83;;;;;;;2.45;62.51;92839.04;1812754;78;21173;-81
2020/12/07 11:37:15;;;;;;;13.00;8.18;;;;;;;2.42;62.90;92837.84;1797396;79;21183;-81
2020/12/07 11:39:59;;;;;;;15.88;8.78;;;;;;;2.43;62.86;92825.96;1792562;80;21719;-80
2020/12/07 11:43:14;;;;;;;13.38;7.85;;;;;;;2.45;63.07;92835.02;1804552;79;21498;-80
2020/12/07 11:44:50;;;;;;;12.95;8.13;;;;;;;2.45;63.20;92840.38;1763329;79;22077;-79
2020/12/07 11:47:18;;;;;;;19.45;7.87;;;;;;;2.42;62.96;92844.55;1734035;82;21196;-79
2020/12/07 11:49:48;;;;;;;14.23;7.90;;;;;;;2.36;63.11;92839.83;1734755;80;21629;-79
2020/12/07 11:52:16;;;;;;;14.13;8.60;;;;;;;2.31;63.30;92840.13;1769131;80;21622;-80
2020/12/07 11:54:45;;;;;;;12.33;9.15;;;;;;;2.27;62.98;92832.59;1767382;81;21167;-79
2020/12/07 11:57:13;;;;;;;14.25;8.83;;;;;;;2.20;63.04;92822.50;1786169;79;21807;-79
2020/12/07 11:59:41;;;;;;;11.48;8.25;;;;;;;2.17;63.47;92825.32;1786776;80;21211;-78
2020/12/07 12:02:09;;;;;;;15.48;8.23;;;;;;;2.14;63.60;92823.38;1732286;80;21092;-78
2020/12/07 12:04:37;;;;;;;14.58;8.23;;;;;;;2.13;63.47;92823.14;1851349;77;21296;-79
2020/12/07 12:07:07;;;;;;;10.50;7.12;;;;;;;2.10;63.60;92823.84;1782871;80;21175;-80
2020/12/07 12:09:38;;;;;;;15.08;8.93;;;;;;;2.09;63.73;92826.90;1830860;77;21189;-81
2020/12/07 12:12:07;;;;;;;13.93;8.65;;;;;;;2.08;63.64;92831.49;1759347;78;21168;-83
2020/12/07 12:14:35;;;;;;;13.85;9.23;;;;;;;2.09;63.87;92835.72;1799660;79;21160;-78
2020/12/07 12:17:03;;;;;;;16.32;10.23;;;;;;;2.06;63.64;92827.03;1812233;77;21183;-78
2020/12/07 12:19:32;;;;;;;16.20;10.00;;;;;;;2.03;63.85;92831.80;1819967;78;21174;-78
2020/12/07 12:22:00;;;;;;;12.25;8.35;;;;;;;2.00;63.97;92827.70;1855293;77;21681;-81
2020/12/07 12:24:28;;;;;;;13.80;8.60;;;;;;;1.95;63.94;92824.72;1754508;80;21200;-78
2020/12/07 12:26:58;;;;;;;16.05;8.70;;;;;;;1.91;64.13;92825.22;1797150;78;21194;-81
2020/12/07 12:29:27;;;;;;;15.18;8.98;;;;;;;1.87;63.88;92830.52;1789195;77;21181;-80
2020/12/07 12:31:55;;;;;;;13.00;8.60;;;;;;;1.82;63.81;92832.72;1818614;78;21186;-76
2020/12/07 12:34:23;;;;;;;15.85;9.35;;;;;;;1.72;63.77;92834.06;1813334;79;21667;-77
2020/12/07 12:36:51;;;;;;;16.15;9.93;;;;;;;1.60;63.90;92836.89;1859749;77;21755;-85
2020/12/07 12:39:21;;;;;;;15.45;8.85;;;;;;;1.48;64.28;92837.03;1772632;80;21119;-82
2020/12/07 12:41:50;;;;;;;15.55;10.68;;;;;;;1.34;64.25;92842.86;1833132;77;21581;-84
2020/12/07 12:44:19;;;;;;;16.48;10.05;;;;;;;1.17;64.56;92840.03;1802071;78;21193;-84
2020/12/07 12:46:47;;;;;;;17.42;10.18;;;;;;;1.00;64.67;92839.84;1725038;79;21340;-80
2020/12/07 12:49:16;;;;;;;17.15;10.15;;;;;;;0.81;65.03;92839.78;1784813;79;21211;-86
2020/12/07 12:51:45;;;;;;;13.05;9.23;;;;;;;0.58;65.46;92839.07;1737691;79;21660;-82
2020/12/07 12:54:14;;;;;;;18.60;9.68;;;;;;;0.42;65.95;92837.74;1758973;80;21210;-84
2020/12/07 12:56:43;;;;;;;14.95;10.40;;;;;;;0.22;66.44;92839.52;1820217;77;21148;-83
2020/12/07 12:59:11;;;;;;;17.20;11.30;;;;;;;0.04;66.97;92834.31;1777110;80;21301;-82
2020/12/07 13:01:41;;;;;;;16.50;10.85;;;;;;;-0.06;67.50;92844.16;1809106;78;21243;-83
2020/12/07 13:04:11;;;;;;;17.45;11.00;;;;;;;-0.17;67.98;92841.20;1856706;77;21182;-80
2020/12/07 13:06:41;;;;;;;18.73;10.38;;;;;;;-0.33;68.25;92841.16;1764216;80;21405;-79
2020/12/07 13:09:09;;;;;;;18.37;10.55;;;;;;;-0.46;68.63;92843.66;1775620;80;21163;-80
2020/12/07 13:11:37;;;;;;;22.75;13.15;;;;;;;-0.57;68.96;92848.69;1798108;78;21146;-81
2020/12/07 13:14:05;;;;;;;22.22;12.60;;;;;;;-0.63;69.34;92844.72;1822059;77;21797;-78
2020/12/07 13:16:47;;;;;;;16.95;10.48;;;;;;;-0.72;69.70;92845.96;1808067;79;21139;-78
2020/12/07 13:19:06;;;;;;;17.73;11.57;;;;;;;-0.76;69.96;92843.19;1774701;79;21222;-77
2020/12/07 13:21:40;;;;;;;22.20;12.40;;;;;;;-0.84;70.22;92848.88;1816682;76;21179;-83
2020/12/07 13:24:25;;;;;;;21.68;12.47;;;;;;;-0.89;70.40;92848.34;1815844;77;21406;-79
2020/12/07 13:26:52;;;;;;;23.83;12.25;;;;;;;-0.95;70.76;92851.02;1787487;79;21646;-81
2020/12/07 13:29:14;;;;;;;17.23;10.78;;;;;;;-1.02;70.88;92852.91;1814123;77;21174;-79
2020/12/07 13:31:42;;;;;;;19.35;11.85;;;;;;;-1.09;71.03;92852.17;1843355;76;21658;-80
2020/12/07 13:34:10;;;;;;;21.42;11.38;;;;;;;-1.14;71.41;92858.27;1755557;78;21223;-78
2020/12/07 13:36:43;;;;;;;31.82;16.50;;;;;;;-1.23;71.66;92868.51;1790291;79;21212;-81